createdAt,value
2019-05-11T00:00:23.888Z,3.55
2019-05-11T00:04:28.157Z,3.40
2019-05-11T00:06:30.187Z,3.52
2019-05-11T00:08:32.379Z,3.37
2019-05-11T00:10:34.428Z,3.42
2019-05-11T00:12:38.447Z,4.30
2019-05-11T00:14:40.618Z,3.72
2019-05-11T00:16:42.622Z,3.60
2019-05-11T00:18:44.915Z,3.85
2019-05-11T00:20:47.222Z,3.75
2019-05-11T00:22:51.996Z,3.60
2019-05-11T00:24:54.201Z,3.92
2019-05-11T00:26:56.776Z,4.03
2019-05-11T00:28:58.927Z,3.95
2019-05-11T00:31:03.778Z,3.50
2019-05-11T00:33:06.020Z,4.03
2019-05-11T00:35:08.013Z,4.50
2019-05-11T00:37:10.045Z,3.58
2019-05-11T00:39:12.237Z,3.70
2019-05-11T00:41:14.233Z,3.17
2019-05-11T00:43:16.284Z,3.85
2019-05-11T00:45:18.401Z,3.77
2019-05-11T00:47:20.589Z,3.90
2019-05-11T00:49:22.644Z,3.87
2019-05-11T00:51:24.786Z,3.58
2019-05-11T00:53:26.937Z,3.85
2019-05-11T00:55:29.043Z,3.67
2019-05-11T00:57:31.182Z,3.87
2019-05-11T00:59:33.169Z,4.08
2019-05-11T01:01:35.358Z,3.62
2019-05-11T01:03:37.584Z,3.60
2019-05-11T01:05:39.689Z,3.52
2019-05-11T01:07:41.714Z,3.98
2019-05-11T01:09:44.068Z,3.87
2019-05-11T01:13:48.057Z,3.80
2019-05-11T01:15:50.255Z,4.35
2019-05-11T01:17:52.299Z,3.98
2019-05-11T01:19:54.423Z,4.65
2019-05-11T01:21:56.750Z,4.42
2019-05-11T01:23:58.759Z,4.65
2019-05-11T01:26:00.800Z,4.58
2019-05-11T01:28:03.381Z,4.42
2019-05-11T01:30:07.073Z,4.70
2019-05-11T01:32:09.112Z,4.72
2019-05-11T01:34:11.577Z,4.65
2019-05-11T01:36:13.739Z,5.12
2019-05-11T01:38:15.757Z,5.08
2019-05-11T01:40:18.175Z,5.67
2019-05-11T01:44:21.838Z,5.65
2019-05-11T01:46:24.057Z,5.42
2019-05-11T01:48:26.042Z,6.20
2019-05-11T01:50:28.442Z,6.10
2019-05-11T01:54:32.622Z,6.00
2019-05-11T01:56:34.636Z,5.47
2019-05-11T01:58:36.834Z,6.20
2019-05-11T02:00:38.877Z,6.15
2019-05-11T02:02:40.901Z,6.03
2019-05-11T02:04:43.329Z,6.58
2019-05-11T02:06:46.292Z,7.28
2019-05-11T02:08:48.601Z,6.42
2019-05-11T02:10:50.933Z,6.60
2019-05-11T02:12:52.928Z,6.40
2019-05-11T02:14:54.970Z,7.10
2019-05-11T02:16:57.348Z,6.40
2019-05-11T02:21:01.165Z,7.03
2019-05-11T02:23:04.451Z,6.95
2019-05-11T02:25:07.309Z,7.10
2019-05-11T02:27:09.392Z,7.35
2019-05-11T02:29:11.757Z,6.78
2019-05-11T02:31:13.767Z,7.28
2019-05-11T02:33:15.779Z,7.65
2019-05-11T02:35:17.958Z,6.83
2019-05-11T02:37:20.144Z,6.90
2019-05-11T02:39:22.495Z,7.20
2019-05-11T02:41:35.583Z,7.12
2019-05-11T02:43:28.559Z,6.35
2019-05-11T02:45:41.514Z,7.33
2019-05-11T02:47:43.855Z,6.85
2019-05-11T02:49:45.886Z,6.97
2019-05-11T02:51:49.700Z,6.70
2019-05-11T02:53:52.773Z,7.05
2019-05-11T02:55:54.817Z,6.90
2019-05-11T02:57:56.839Z,6.47
2019-05-11T02:59:58.911Z,6.47
2019-05-11T03:02:01.004Z,6.62
2019-05-11T03:04:03.204Z,8.58
2019-05-11T03:06:06.592Z,6.40
2019-05-11T03:08:08.881Z,5.72
2019-05-11T03:10:11.452Z,6.60
2019-05-11T03:12:13.689Z,6.15
2019-05-11T03:14:15.693Z,6.15
2019-05-11T03:16:17.771Z,6.65
2019-05-11T03:18:21.096Z,6.70
2019-05-11T03:20:23.103Z,5.70
2019-05-11T03:22:25.457Z,5.90
2019-05-11T03:24:27.808Z,7.12
2019-05-11T03:26:30.079Z,6.15
2019-05-11T03:28:32.144Z,5.80
2019-05-11T03:30:34.414Z,6.37
2019-05-11T03:32:36.472Z,6.45
2019-05-11T03:34:38.489Z,6.17
2019-05-11T03:36:40.714Z,5.80
2019-05-11T03:38:42.776Z,5.45
2019-05-11T03:40:44.793Z,6.00
2019-05-11T03:42:47.766Z,5.55
2019-05-11T03:44:49.815Z,5.72
2019-05-11T03:46:51.772Z,5.75
2019-05-11T03:48:54.077Z,6.17
2019-05-11T03:50:56.171Z,5.40
2019-05-11T03:52:58.151Z,5.87
2019-05-11T03:55:00.520Z,5.45
2019-05-11T03:59:04.307Z,5.40
2019-05-11T04:01:06.364Z,5.20
2019-05-11T04:03:08.477Z,5.40
2019-05-11T04:05:10.455Z,5.80
2019-05-11T04:07:12.847Z,5.28
2019-05-11T04:11:16.477Z,4.70
2019-05-11T04:13:18.824Z,4.28
2019-05-11T04:17:36.015Z,4.83
2019-05-11T04:19:38.337Z,4.62
2019-05-11T04:21:40.323Z,4.67
2019-05-11T04:23:42.360Z,4.72
2019-05-11T04:25:44.929Z,4.58
2019-05-11T04:27:47.082Z,4.37
2019-05-11T04:29:49.090Z,4.12
2019-05-11T04:31:51.824Z,4.12
2019-05-11T04:33:53.837Z,4.10
2019-05-11T04:35:56.035Z,3.35
2019-05-11T04:37:58.313Z,4.20
2019-05-11T04:40:00.320Z,3.58
2019-05-11T04:42:02.441Z,3.60
2019-05-11T04:44:04.713Z,3.95
2019-05-11T04:46:06.730Z,3.60
2019-05-11T04:48:08.963Z,4.28
2019-05-11T04:50:11.625Z,3.72
2019-05-11T04:52:13.662Z,3.85
2019-05-11T04:56:16.477Z,3.40
2019-05-11T04:58:18.599Z,3.72
2019-05-11T05:00:21.201Z,3.33
2019-05-11T05:02:27.189Z,3.37
2019-05-11T05:04:28.701Z,3.87
2019-05-11T05:06:30.686Z,4.08
2019-05-11T05:08:32.938Z,3.72
2019-05-11T05:10:34.951Z,3.83
2019-05-11T05:12:36.925Z,3.95
2019-05-11T05:14:39.130Z,4.60
2019-05-11T05:16:41.345Z,4.50
2019-05-11T05:18:43.406Z,4.33
2019-05-11T05:20:45.840Z,4.45
2019-05-11T05:24:49.376Z,4.12
2019-05-11T05:26:51.600Z,4.35
2019-05-11T05:28:53.796Z,4.33
2019-05-11T05:30:55.795Z,4.12
2019-05-11T05:32:58.101Z,4.35
2019-05-11T05:35:00.224Z,4.47
2019-05-11T05:37:02.223Z,4.33
2019-05-11T05:39:08.828Z,4.53
2019-05-11T05:41:10.321Z,4.35
2019-05-11T05:43:25.587Z,4.50
2019-05-11T05:45:16.503Z,4.85
2019-05-11T05:47:18.536Z,4.58
2019-05-11T05:49:20.532Z,5.08
2019-05-11T05:51:23.204Z,4.30
2019-05-11T05:53:26.121Z,4.62
2019-05-11T05:55:28.113Z,4.53
2019-05-11T05:57:30.320Z,4.95
2019-05-11T05:59:32.487Z,4.90
2019-05-11T06:01:34.490Z,4.53
2019-05-11T06:03:37.930Z,4.78
2019-05-11T06:05:40.143Z,4.70
2019-05-11T06:07:42.580Z,4.85
2019-05-11T06:11:46.680Z,4.73
2019-05-11T06:13:48.683Z,4.97
2019-05-11T06:15:51.029Z,4.25
2019-05-11T06:17:53.517Z,4.42
2019-05-11T06:19:55.550Z,4.65
2019-05-11T06:21:57.923Z,5.30
2019-05-11T06:24:06.252Z,4.78
2019-05-11T06:26:04.125Z,4.62
2019-05-11T06:28:06.532Z,4.60
2019-05-11T06:32:10.395Z,4.62
2019-05-11T06:34:14.900Z,4.78
2019-05-11T06:36:17.100Z,4.83
2019-05-11T06:40:21.405Z,4.97
2019-05-11T06:44:25.024Z,4.85
2019-05-11T06:46:27.378Z,4.55
2019-05-11T06:48:30.542Z,5.05
2019-05-11T06:50:32.663Z,4.42
2019-05-11T06:52:34.896Z,4.17
2019-05-11T06:54:38.046Z,4.10
2019-05-11T06:56:40.081Z,4.33
2019-05-11T06:58:45.446Z,4.55
2019-05-11T07:00:46.789Z,3.77
2019-05-11T07:02:48.801Z,4.15
2019-05-11T07:04:51.264Z,4.58
2019-05-11T07:08:54.992Z,3.70
2019-05-11T07:10:57.346Z,4.00
2019-05-11T07:12:59.375Z,4.05
2019-05-11T07:15:01.419Z,3.90
2019-05-11T07:17:03.942Z,4.20
2019-05-11T07:21:08.639Z,4.12
2019-05-11T07:23:10.944Z,3.83
2019-05-11T07:25:12.953Z,3.87
2019-05-11T07:27:15.519Z,4.22
2019-05-11T07:31:19.257Z,4.40
2019-05-11T07:33:21.261Z,4.50
2019-05-11T07:35:23.524Z,3.67
2019-05-11T07:37:27.845Z,3.90
2019-05-11T07:39:30.678Z,4.30
2019-05-11T07:41:32.790Z,3.83
2019-05-11T07:43:35.182Z,4.17
2019-05-11T07:45:38.697Z,4.70
2019-05-11T07:47:40.925Z,4.30
2019-05-11T07:49:42.916Z,4.33
2019-05-11T07:51:45.009Z,4.17
2019-05-11T07:53:48.632Z,4.25
2019-05-11T07:55:51.125Z,3.77
2019-05-11T07:57:53.168Z,3.75
2019-05-11T07:59:57.883Z,3.65
2019-05-11T08:01:59.988Z,3.77
2019-05-11T08:04:02.001Z,3.90
2019-05-11T08:06:04.603Z,3.58
2019-05-11T08:10:10.710Z,3.77
2019-05-11T08:14:15.009Z,3.60
2019-05-11T08:16:18.531Z,3.95
2019-05-11T08:18:21.061Z,3.70
2019-05-11T08:20:23.046Z,3.98
2019-05-11T08:22:25.037Z,3.70
2019-05-11T08:24:28.461Z,3.90
2019-05-11T08:26:30.735Z,4.05
2019-05-11T08:28:32.836Z,4.03
2019-05-11T08:30:37.987Z,3.80
2019-05-11T08:32:39.420Z,3.65
2019-05-11T08:34:41.401Z,3.90
2019-05-11T08:36:43.765Z,4.65
2019-05-11T08:38:48.101Z,3.50
2019-05-11T08:40:49.634Z,3.60
2019-05-11T08:42:51.795Z,3.52
2019-05-11T08:44:53.811Z,3.45
2019-05-11T08:46:58.049Z,3.55
2019-05-11T08:49:00.338Z,3.12
2019-05-11T08:53:05.190Z,3.67
2019-05-11T08:55:08.421Z,3.70
2019-05-11T08:57:10.565Z,3.47
2019-05-11T08:59:12.833Z,3.02
2019-05-11T09:01:15.155Z,3.12
2019-05-11T09:03:18.026Z,3.83
2019-05-11T09:05:20.775Z,3.72
2019-05-11T09:07:24.220Z,3.72
2019-05-11T09:09:28.650Z,3.70
2019-05-11T09:11:30.783Z,3.98
2019-05-11T09:13:32.862Z,3.65
2019-05-11T09:15:39.811Z,3.75
2019-05-11T09:17:39.994Z,3.50
2019-05-11T09:19:42.415Z,3.77
2019-05-11T09:21:44.665Z,3.92
2019-05-11T09:23:48.653Z,4.12
2019-05-11T09:25:50.965Z,4.55
2019-05-11T09:27:53.005Z,4.05
2019-05-11T09:29:55.027Z,4.00
2019-05-11T09:31:58.203Z,4.35
2019-05-11T09:34:00.816Z,4.30
2019-05-11T09:36:02.829Z,3.75
2019-05-11T09:38:08.014Z,3.98
2019-05-11T09:40:10.570Z,3.90
2019-05-11T09:42:12.860Z,4.60
2019-05-11T09:44:15.056Z,4.35
2019-05-11T09:46:18.923Z,3.80
2019-05-11T09:48:21.119Z,4.00
2019-05-11T09:50:24.511Z,3.80
2019-05-11T09:52:32.451Z,3.72
2019-05-11T09:54:34.645Z,4.30
2019-05-11T09:56:38.161Z,4.10
2019-05-11T09:58:40.474Z,4.00
2019-05-11T10:00:42.521Z,4.17
2019-05-11T10:02:44.975Z,4.12
2019-05-11T10:06:50.556Z,4.05
2019-05-11T10:08:52.794Z,4.42
2019-05-11T10:10:54.794Z,4.60
2019-05-11T10:12:58.778Z,3.92
2019-05-11T10:15:01.053Z,3.47
2019-05-11T10:19:04.948Z,3.60
2019-05-11T10:21:08.126Z,3.30
2019-05-11T10:23:10.236Z,3.45
2019-05-11T10:25:12.490Z,4.08
2019-05-11T10:27:14.934Z,3.30
2019-05-11T10:29:18.329Z,2.90
2019-05-11T10:31:21.781Z,2.50
2019-05-11T10:33:24.299Z,2.83
2019-05-11T10:37:28.449Z,2.37
2019-05-11T10:39:30.694Z,3.08
2019-05-11T10:41:32.706Z,2.58
2019-05-11T10:43:34.704Z,2.62
2019-05-11T10:45:37.900Z,2.77
2019-05-11T10:47:40.341Z,2.10
2019-05-11T10:49:42.376Z,2.30
2019-05-11T10:51:44.998Z,2.15
2019-05-11T10:53:51.286Z,1.98
2019-05-11T10:55:50.949Z,2.10
2019-05-11T10:57:52.941Z,2.05
2019-05-11T10:59:57.349Z,1.98
2019-05-11T11:01:59.247Z,2.17
2019-05-11T11:04:01.589Z,1.85
2019-05-11T11:06:03.822Z,1.95
2019-05-11T11:08:08.356Z,2.22
2019-05-11T11:10:10.742Z,2.10
2019-05-11T11:12:13.049Z,2.10
2019-05-11T11:14:15.054Z,2.10
2019-05-11T11:16:35.029Z,2.17
2019-05-11T11:18:22.309Z,2.08
2019-05-11T11:20:24.350Z,1.95
2019-05-11T11:22:38.935Z,2.12
2019-05-11T11:24:30.885Z,1.85
2019-05-11T11:26:32.914Z,2.12
2019-05-11T11:28:35.752Z,1.90
2019-05-11T11:30:37.997Z,1.77
2019-05-11T11:32:40.205Z,1.87
2019-05-11T11:34:42.547Z,2.00
2019-05-11T11:36:44.595Z,1.90
2019-05-11T11:38:47.913Z,1.67
2019-05-11T11:40:50.583Z,1.70
2019-05-11T11:42:52.834Z,1.87
2019-05-11T11:44:54.860Z,1.75
2019-05-11T11:46:59.098Z,1.90
2019-05-11T11:49:00.964Z,1.77
2019-05-11T11:51:04.079Z,1.92
2019-05-11T11:53:08.387Z,1.70
2019-05-11T11:55:10.610Z,1.95
2019-05-11T11:59:17.826Z,2.00
2019-05-11T12:01:20.126Z,1.92
2019-05-11T12:03:23.814Z,1.80
2019-05-11T12:05:28.108Z,1.90
2019-05-11T12:07:31.157Z,2.00
2019-05-11T12:09:34.394Z,2.00
2019-05-11T12:11:38.019Z,1.85
2019-05-11T12:13:40.402Z,1.70
2019-05-11T12:15:42.461Z,1.90
2019-05-11T12:17:44.681Z,1.87
2019-05-11T12:19:47.800Z,2.00
2019-05-11T12:21:50.091Z,2.33
2019-05-11T12:23:52.460Z,2.00
2019-05-11T12:25:54.485Z,1.98
2019-05-11T12:27:57.726Z,2.08
2019-05-11T12:30:00.239Z,1.87
2019-05-11T12:32:04.783Z,1.70
2019-05-11T12:34:08.781Z,1.70
2019-05-11T12:36:12.899Z,2.45
2019-05-11T12:38:15.036Z,2.20
2019-05-11T12:40:18.096Z,1.80
2019-05-11T12:42:20.998Z,1.82
2019-05-11T12:44:28.166Z,2.17
2019-05-11T12:46:30.077Z,2.10
2019-05-11T12:48:32.417Z,1.70
2019-05-11T12:50:34.405Z,1.70
2019-05-11T12:52:38.271Z,1.87
2019-05-11T12:54:40.804Z,2.17
2019-05-11T13:00:12.444Z,2.25
2019-05-11T13:02:14.685Z,2.00
2019-05-11T13:04:18.189Z,2.30
2019-05-11T13:06:20.576Z,2.08
2019-05-11T13:08:22.609Z,1.85
2019-05-11T13:10:24.752Z,2.00
2019-05-11T13:12:27.972Z,2.40
2019-05-11T13:14:30.126Z,2.00
2019-05-11T13:16:32.259Z,2.05
2019-05-11T13:18:34.576Z,1.60
2019-05-11T13:20:37.837Z,1.92
2019-05-11T13:22:40.060Z,1.80
2019-05-11T13:24:42.394Z,1.80
2019-05-11T13:26:44.488Z,1.60
2019-05-11T13:28:48.441Z,1.57
2019-05-11T13:30:52.670Z,2.00
2019-05-11T13:32:55.101Z,1.80
2019-05-11T13:37:01.122Z,2.02
2019-05-11T13:41:07.983Z,1.87
2019-05-11T13:43:10.478Z,1.80
2019-05-11T13:45:14.115Z,1.60
2019-05-11T13:47:17.994Z,1.57
2019-05-11T13:49:20.659Z,2.10
2019-05-11T13:51:22.674Z,1.82
2019-05-11T13:53:24.717Z,1.82
2019-05-11T13:55:28.690Z,1.90
2019-05-11T13:57:30.883Z,2.05
2019-05-11T13:59:32.932Z,1.75
2019-05-11T14:01:37.976Z,1.52
2019-05-11T14:03:43.874Z,2.20
2019-05-11T14:05:48.136Z,1.52
2019-05-11T14:07:50.398Z,2.00
2019-05-11T14:09:52.543Z,1.42
2019-05-11T14:11:54.645Z,1.62
2019-05-11T14:13:58.506Z,1.87
2019-05-11T14:16:00.676Z,1.90
2019-05-11T14:18:08.422Z,1.70
2019-05-11T14:20:09.275Z,2.17
2019-05-11T14:22:11.395Z,2.02
2019-05-11T14:24:13.410Z,1.90
2019-05-11T14:26:15.581Z,1.65
2019-05-11T14:28:18.093Z,1.80
2019-05-11T14:30:20.339Z,2.05
2019-05-11T14:32:22.602Z,1.70
2019-05-11T14:34:24.787Z,2.10
2019-05-11T14:36:28.170Z,2.00
2019-05-11T14:38:31.648Z,1.60
2019-05-11T14:40:33.700Z,1.85
2019-05-11T14:42:37.637Z,1.87
2019-05-11T14:44:39.889Z,1.80
2019-05-11T14:46:42.053Z,1.80
2019-05-11T14:48:44.462Z,2.33
2019-05-11T14:50:48.983Z,2.10
2019-05-11T14:52:50.935Z,1.90
2019-05-11T14:54:53.643Z,2.47
2019-05-11T14:56:55.957Z,1.77
2019-05-11T14:58:58.126Z,1.65
2019-05-11T15:01:00.221Z,2.02
2019-05-11T15:03:02.548Z,2.00
2019-05-11T15:07:08.491Z,1.50
2019-05-11T15:09:10.894Z,1.60
2019-05-11T15:11:12.952Z,1.80
2019-05-11T15:13:15.041Z,1.90
2019-05-11T15:15:18.716Z,2.00
2019-05-11T15:17:21.335Z,2.05
2019-05-11T15:19:23.382Z,1.77
2019-05-11T15:21:27.920Z,1.45
2019-05-11T15:23:29.656Z,1.62
2019-05-11T15:25:32.655Z,1.60
2019-05-11T15:27:34.968Z,1.90
2019-05-11T15:29:37.782Z,1.72
2019-05-11T15:31:40.182Z,1.60
2019-05-11T15:33:42.412Z,1.90
2019-05-11T15:35:44.633Z,1.72
2019-05-11T15:37:47.941Z,1.47
2019-05-11T15:39:50.503Z,1.42
2019-05-11T15:42:05.697Z,1.52
2019-05-11T15:43:57.884Z,1.50
2019-05-11T15:46:00.578Z,1.22
2019-05-11T15:48:02.849Z,1.57
2019-05-11T15:50:05.151Z,1.87
2019-05-11T15:52:08.224Z,1.77
2019-05-11T15:54:10.541Z,1.75
2019-05-11T15:56:12.677Z,1.67
2019-05-11T15:58:14.900Z,1.92
2019-05-11T16:00:19.052Z,2.05
2019-05-11T16:02:21.104Z,1.30
2019-05-11T16:04:23.649Z,1.60
2019-05-11T16:08:28.977Z,1.40
2019-05-11T16:10:31.195Z,2.05
2019-05-11T16:12:33.584Z,1.65
2019-05-11T16:14:38.199Z,2.05
2019-05-11T16:16:40.105Z,1.47
2019-05-11T16:18:44.068Z,1.85
2019-05-11T16:20:49.806Z,1.90
2019-05-11T16:22:50.350Z,1.50
2019-05-11T16:24:52.393Z,2.05
2019-05-11T16:26:54.482Z,1.67
2019-05-11T16:28:58.190Z,1.77
2019-05-11T16:31:00.350Z,2.00
2019-05-11T16:33:02.601Z,1.60
2019-05-11T16:35:05.439Z,1.27
2019-05-11T16:37:09.961Z,1.55
2019-05-11T16:39:12.299Z,1.87
2019-05-11T16:41:14.586Z,1.47
2019-05-11T16:43:18.991Z,1.70
2019-05-11T16:45:23.888Z,1.60
2019-05-11T16:47:25.072Z,2.05
2019-05-11T16:49:32.109Z,1.92
2019-05-11T16:51:31.157Z,2.10
2019-05-11T16:53:35.291Z,1.70
2019-05-11T16:55:37.807Z,1.47
2019-05-11T16:59:42.064Z,1.50
2019-05-11T17:01:44.080Z,1.57
2019-05-11T17:03:48.132Z,1.52
2019-05-11T17:05:50.426Z,1.30
2019-05-11T17:07:52.547Z,1.30
2019-05-11T17:09:54.662Z,1.40
2019-05-11T17:11:57.864Z,1.27
2019-05-11T17:14:00.067Z,1.72
2019-05-11T17:16:02.316Z,1.20
2019-05-11T17:18:04.608Z,1.50
2019-05-11T17:20:08.064Z,1.32
2019-05-11T17:22:10.181Z,1.35
2019-05-11T17:24:12.547Z,1.70
2019-05-11T17:26:14.765Z,2.05
2019-05-11T17:28:17.094Z,1.80
2019-05-11T17:30:19.932Z,1.52
2019-05-11T17:32:22.076Z,1.30
2019-05-11T17:34:24.309Z,1.40
2019-05-11T17:36:27.932Z,1.40
2019-05-11T17:38:30.066Z,1.35
2019-05-11T17:40:32.120Z,1.40
2019-05-11T17:42:34.466Z,1.50
2019-05-11T17:44:39.264Z,1.42
2019-05-11T17:46:41.369Z,1.32
2019-05-11T17:48:43.703Z,1.17
2019-05-11T17:50:45.839Z,1.30
2019-05-11T17:52:48.119Z,1.30
2019-05-11T17:54:50.424Z,1.32
2019-05-11T17:56:52.765Z,1.30
2019-05-11T18:00:58.854Z,1.20
2019-05-11T18:03:01.474Z,1.40
2019-05-11T18:05:04.218Z,1.30
2019-05-11T18:07:06.470Z,1.20
2019-05-11T18:09:08.844Z,1.30
2019-05-11T18:11:10.936Z,1.20
2019-05-11T18:13:13.310Z,1.12
2019-05-11T18:15:49.229Z,1.30
2019-05-11T18:17:58.574Z,1.20
2019-05-11T18:20:13.851Z,1.20
2019-05-11T18:22:04.203Z,1.20
2019-05-11T18:24:08.913Z,1.90
2019-05-11T18:26:10.626Z,1.60
2019-05-11T18:28:14.315Z,1.45
2019-05-11T18:30:17.047Z,1.30
2019-05-11T18:34:21.353Z,1.35
2019-05-11T18:36:24.819Z,1.70
2019-05-11T18:38:27.656Z,1.15
2019-05-11T18:40:30.061Z,1.40
2019-05-11T18:42:32.113Z,1.67
2019-05-11T18:44:34.399Z,1.40
2019-05-11T18:46:39.103Z,1.25
2019-05-11T18:48:41.423Z,1.20
2019-05-11T18:50:43.969Z,1.10
2019-05-11T18:52:46.128Z,1.75
2019-05-11T18:54:48.781Z,1.40
2019-05-11T18:56:51.053Z,1.15
2019-05-11T18:58:53.146Z,1.10
2019-05-11T19:00:55.210Z,1.40
2019-05-11T19:02:58.164Z,1.37
2019-05-11T19:05:00.481Z,0.93
2019-05-11T19:07:14.259Z,1.40
2019-05-11T19:09:08.403Z,1.40
2019-05-11T19:11:10.556Z,1.27
2019-05-11T19:13:12.981Z,1.40
2019-05-11T19:15:15.341Z,1.20
2019-05-11T19:17:18.141Z,1.10
2019-05-11T19:19:20.408Z,1.15
2019-05-11T19:21:22.560Z,1.50
2019-05-11T19:23:25.041Z,1.10
2019-05-11T19:27:28.968Z,1.10
2019-05-11T19:29:31.068Z,1.37
2019-05-11T19:31:33.243Z,1.20
2019-05-11T19:33:38.131Z,1.10
2019-05-11T19:35:40.326Z,2.90
2019-05-11T19:37:42.403Z,4.40
2019-05-11T19:39:47.681Z,1.57
2019-05-11T19:41:48.715Z,1.10
2019-05-11T19:43:50.896Z,1.42
2019-05-11T19:45:53.041Z,2.30
2019-05-11T19:47:57.589Z,3.58
2019-05-11T19:49:59.181Z,1.60
2019-05-11T19:52:01.468Z,1.10
2019-05-11T19:55:51.979Z,2.25
2019-05-11T19:57:54.461Z,4.78
2019-05-11T20:02:01.150Z,1.65
2019-05-11T20:04:03.395Z,2.10
2019-05-11T20:06:05.538Z,2.58
2019-05-11T20:08:08.017Z,4.78
2019-05-11T20:10:10.503Z,1.52
2019-05-11T20:12:12.550Z,1.37
2019-05-11T20:14:14.994Z,1.52
2019-05-11T20:18:21.945Z,2.75
2019-05-11T20:20:24.265Z,9.43
2019-05-11T20:22:28.161Z,4.65
2019-05-11T20:24:30.423Z,3.87
2019-05-11T20:26:32.507Z,1.77
2019-05-11T20:28:35.007Z,1.85
2019-05-11T20:32:39.183Z,1.20
2019-05-11T20:36:43.495Z,2.40
2019-05-11T20:38:47.654Z,1.67
2019-05-11T20:40:51.388Z,1.50
2019-05-11T20:44:55.011Z,1.70
2019-05-11T20:46:58.059Z,1.90
2019-05-11T20:49:00.192Z,1.50
2019-05-11T20:51:02.688Z,1.80
2019-05-11T20:55:08.912Z,2.52
2019-05-11T20:57:11.414Z,1.20
2019-05-11T20:59:14.324Z,1.80
2019-05-11T21:01:17.869Z,2.17
2019-05-11T21:03:20.305Z,1.30
2019-05-11T21:05:22.566Z,1.50
2019-05-11T21:07:24.684Z,1.98
2019-05-11T21:09:28.780Z,2.25
2019-05-11T21:11:33.374Z,1.25
2019-05-11T21:13:35.655Z,1.50
2019-05-11T21:15:38.455Z,1.45
2019-05-11T21:17:42.113Z,1.35
2019-05-11T21:21:52.825Z,1.40
2019-05-11T21:23:51.159Z,1.32
2019-05-11T21:25:54.308Z,1.15
2019-05-11T21:27:57.969Z,1.12
2019-05-11T21:30:00.415Z,1.35
2019-05-11T21:32:02.641Z,1.30
2019-05-11T21:34:04.780Z,1.22
2019-05-11T21:36:08.828Z,1.15
2019-05-11T21:38:10.918Z,18.98
2019-05-11T21:40:13.206Z,2.55
2019-05-11T21:42:15.460Z,7.58
2019-05-11T21:44:18.867Z,2.67
2019-05-11T21:46:23.885Z,3.17
2019-05-11T21:48:28.048Z,4.15
2019-05-11T21:50:36.804Z,1.50
2019-05-11T21:52:39.082Z,2.92
2019-05-11T21:54:42.469Z,1.50
2019-05-11T21:56:44.536Z,1.10
2019-05-11T21:58:46.633Z,1.30
2019-05-11T22:00:49.281Z,1.05
2019-05-11T22:02:53.369Z,0.98
2019-05-11T22:04:55.691Z,1.40
2019-05-11T22:06:59.038Z,1.30
2019-05-11T22:09:01.049Z,1.40
2019-05-11T22:11:04.805Z,1.47
2019-05-11T22:13:07.172Z,1.47
2019-05-11T22:17:11.951Z,1.37
2019-05-11T22:19:14.276Z,1.25
2019-05-11T22:21:18.614Z,1.02
2019-05-11T22:23:20.553Z,1.15
2019-05-11T22:25:22.722Z,1.05
2019-05-11T22:27:24.955Z,1.40
2019-05-11T22:29:28.635Z,1.50
2019-05-11T22:31:31.263Z,1.00
2019-05-11T22:33:33.591Z,1.17
2019-05-11T22:35:37.607Z,1.12
2019-05-11T22:37:39.704Z,1.10
2019-05-11T22:39:41.934Z,1.20
2019-05-11T22:41:44.039Z,1.50
2019-05-11T22:43:48.438Z,1.22
2019-05-11T22:45:50.174Z,1.37
2019-05-11T22:47:52.186Z,0.90
2019-05-11T22:49:54.536Z,1.10
2019-05-11T22:51:59.563Z,1.07
2019-05-11T22:54:00.524Z,1.07
2019-05-11T22:56:02.881Z,1.00
2019-05-11T23:00:08.208Z,0.80
2019-05-11T23:02:12.439Z,1.10
2019-05-11T23:04:14.563Z,0.98
2019-05-11T23:06:18.043Z,1.00
2019-05-11T23:08:20.683Z,1.10
2019-05-11T23:12:24.309Z,0.85
2019-05-11T23:14:28.253Z,0.78
2019-05-11T23:16:30.523Z,1.12
2019-05-11T23:18:32.537Z,0.90
2019-05-11T23:20:34.873Z,1.10
2019-05-11T23:22:56.130Z,1.07
2019-05-11T23:24:50.501Z,1.10
2019-05-11T23:26:52.735Z,1.40
2019-05-11T23:28:54.731Z,1.47
2019-05-11T23:30:58.265Z,1.07
2019-05-11T23:33:00.583Z,1.27
2019-05-11T23:35:02.640Z,1.00
2019-05-11T23:37:04.650Z,1.10
2019-05-11T23:39:09.030Z,0.88
2019-05-11T23:41:23.786Z,0.98
2019-05-11T23:43:14.997Z,1.20
2019-05-11T23:45:19.057Z,1.22
2019-05-11T23:47:21.292Z,1.20
2019-05-11T23:49:23.332Z,1.00
2019-05-11T23:51:28.055Z,1.65
2019-05-11T23:53:32.595Z,1.10
2019-05-11T23:55:34.621Z,1.10
2019-05-11T23:57:37.934Z,0.90
2019-05-11T23:59:41.267Z,1.10
